createdAt,value
2018-09-05T00:01:51.331Z,119.43
2018-09-05T00:04:19.283Z,127.20
2018-09-05T00:06:47.379Z,120.33
2018-09-05T00:09:15.345Z,121.30
2018-09-05T00:11:43.282Z,106.07
2018-09-05T00:14:11.281Z,116.10
2018-09-05T00:16:39.218Z,130.83
2018-09-05T00:19:07.222Z,111.40
2018-09-05T00:21:35.196Z,99.83
2018-09-05T00:24:03.152Z,125.70
2018-09-05T00:26:31.112Z,112.27
2018-09-05T00:28:59.068Z,106.80
2018-09-05T00:31:27.018Z,100.53
2018-09-05T00:33:54.963Z,110.33
2018-09-05T00:36:22.902Z,102.40
2018-09-05T00:38:50.861Z,106.87
2018-09-05T00:41:18.809Z,106.83
2018-09-05T00:43:46.740Z,115.90
2018-09-05T00:46:14.667Z,106.17
2018-09-05T00:48:42.644Z,115.87
2018-09-05T00:51:10.601Z,111.13
2018-09-05T00:53:38.580Z,101.17
2018-09-05T00:56:06.628Z,91.07
2018-09-05T00:58:34.556Z,102.13
2018-09-05T01:01:02.503Z,85.93
2018-09-05T01:03:30.584Z,104.30
2018-09-05T01:05:58.612Z,90.93
2018-09-05T01:08:26.592Z,94.60
2018-09-05T01:10:54.615Z,97.27
2018-09-05T01:13:22.531Z,88.67
2018-09-05T01:15:50.627Z,93.03
2018-09-05T01:18:18.575Z,82.13
2018-09-05T01:20:46.528Z,77.90
2018-09-05T01:23:14.491Z,100.47
2018-09-05T01:25:42.471Z,98.37
2018-09-05T01:28:10.431Z,103.23
2018-09-05T01:30:38.419Z,90.57
2018-09-05T01:33:06.347Z,87.60
2018-09-05T01:35:34.393Z,101.07
2018-09-05T01:38:02.372Z,91.87
2018-09-05T01:40:30.300Z,102.40
2018-09-05T01:42:58.265Z,102.67
2018-09-05T01:45:26.207Z,103.30
2018-09-05T01:47:54.156Z,81.33
2018-09-05T01:50:27.499Z,85.60
2018-09-05T01:52:55.715Z,79.50
2018-09-05T01:55:23.650Z,79.83
2018-09-05T01:57:51.579Z,78.83
2018-09-05T02:00:25.044Z,83.17
2018-09-05T02:02:52.992Z,104.77
2018-09-05T02:05:20.931Z,87.90
2018-09-05T02:07:48.881Z,94.60
2018-09-05T02:10:16.816Z,97.53
2018-09-05T02:12:44.753Z,98.87
2018-09-05T02:15:12.672Z,85.50
2018-09-05T02:17:40.620Z,91.57
2018-09-05T02:20:08.573Z,104.47
2018-09-05T02:22:36.491Z,98.30
2018-09-05T02:25:04.451Z,99.73
2018-09-05T02:27:32.384Z,109.50
2018-09-05T02:30:00.316Z,86.43
2018-09-05T02:32:28.270Z,89.43
2018-09-05T02:34:56.200Z,95.40
2018-09-05T02:37:24.145Z,110.17
2018-09-05T02:39:52.181Z,106.27
2018-09-05T02:42:20.157Z,108.17
2018-09-05T02:44:48.096Z,109.40
2018-09-05T02:47:16.050Z,89.33
2018-09-05T02:49:44.027Z,92.90
2018-09-05T02:52:11.984Z,111.87
2018-09-05T02:54:39.976Z,91.63
2018-09-05T02:57:07.916Z,101.40
2018-09-05T02:59:35.860Z,82.33
2018-09-05T03:02:03.818Z,81.77
2018-09-05T03:04:31.736Z,76.57
2018-09-05T03:06:59.684Z,78.43
2018-09-05T03:09:27.696Z,93.90
2018-09-05T03:11:55.598Z,72.73
2018-09-05T03:14:23.550Z,96.27
2018-09-05T03:16:51.567Z,84.60
2018-09-05T03:19:19.520Z,80.57
2018-09-05T03:21:47.476Z,78.10
2018-09-05T03:24:15.610Z,84.43
2018-09-05T03:26:43.544Z,81.47
2018-09-05T03:29:11.488Z,73.37
2018-09-05T03:31:39.505Z,73.23
2018-09-05T03:34:07.461Z,74.57
2018-09-05T03:36:35.415Z,85.60
2018-09-05T03:39:04.270Z,68.20
2018-09-05T03:41:32.215Z,91.13
2018-09-05T03:44:00.168Z,91.37
2018-09-05T03:46:28.151Z,99.87
2018-09-05T03:48:56.099Z,95.93
2018-09-05T03:51:24.053Z,89.83
2018-09-05T03:53:52.008Z,74.13
2018-09-05T03:56:19.996Z,82.57
2018-09-05T03:58:48.179Z,91.00
2018-09-05T04:01:16.116Z,86.27
2018-09-05T04:03:44.066Z,84.67
2018-09-05T04:06:16.084Z,86.20
2018-09-05T04:08:44.020Z,82.27
2018-09-05T04:11:11.972Z,88.07
2018-09-05T04:13:39.915Z,96.83
2018-09-05T04:16:07.848Z,95.80
2018-09-05T04:18:35.860Z,108.40
2018-09-05T04:21:03.803Z,101.13
2018-09-05T04:23:37.148Z,103.70
2018-09-05T04:26:05.100Z,85.23
2018-09-05T04:28:33.036Z,95.53
2018-09-05T04:31:01.021Z,95.77
2018-09-05T04:33:28.947Z,85.17
2018-09-05T04:35:56.884Z,90.63
2018-09-05T04:38:24.921Z,132.52
2018-09-05T04:40:52.869Z,101.57
2018-09-05T04:43:20.808Z,108.97
2018-09-05T04:45:48.764Z,100.40
2018-09-05T04:48:16.708Z,98.30
2018-09-05T04:50:44.660Z,110.97
2018-09-05T04:53:12.604Z,113.87
2018-09-05T04:55:41.599Z,110.57
2018-09-05T04:58:13.419Z,108.07
2018-09-05T05:00:41.323Z,103.73
2018-09-05T05:03:10.387Z,127.17
2018-09-05T05:05:38.451Z,123.73
2018-09-05T05:08:06.353Z,111.73
2018-09-05T05:10:34.380Z,107.60
2018-09-05T05:13:02.573Z,126.33
2018-09-05T05:15:31.685Z,153.27
2018-09-05T05:17:59.748Z,124.17
2018-09-05T05:20:27.696Z,130.20
2018-09-05T05:22:55.665Z,99.27
2018-09-05T05:25:23.712Z,109.00
2018-09-05T05:27:51.900Z,104.40
2018-09-05T05:30:19.875Z,116.73
2018-09-05T05:32:48.069Z,106.97
2018-09-05T05:35:15.932Z,110.07
2018-09-05T05:37:43.888Z,115.50
2018-09-05T05:40:11.873Z,108.57
2018-09-05T05:42:39.821Z,101.77
2018-09-05T05:45:07.831Z,126.47
2018-09-05T05:47:35.820Z,115.13
2018-09-05T05:50:04.059Z,101.03
2018-09-05T05:52:32.613Z,119.10
2018-09-05T05:55:01.154Z,106.37
2018-09-05T05:57:29.171Z,103.40
2018-09-05T05:59:57.135Z,114.30
2018-09-05T06:02:25.208Z,111.57
2018-09-05T06:04:53.157Z,114.70
2018-09-05T06:07:21.224Z,103.13
2018-09-05T06:09:49.298Z,97.47
2018-09-05T06:12:17.246Z,99.07
2018-09-05T06:14:45.189Z,86.30
2018-09-05T06:17:13.116Z,91.53
2018-09-05T06:19:41.078Z,105.63
2018-09-05T06:22:09.068Z,105.70
2018-09-05T06:24:37.032Z,106.87
2018-09-05T06:27:05.063Z,97.90
2018-09-05T06:29:33.044Z,98.97
2018-09-05T06:32:00.992Z,84.60
2018-09-05T06:34:28.952Z,85.30
2018-09-05T06:36:56.928Z,83.13
2018-09-05T06:39:25.154Z,80.37
2018-09-05T06:41:53.134Z,79.00
2018-09-05T06:44:21.084Z,73.93
2018-09-05T06:46:49.084Z,64.60
2018-09-05T06:49:17.013Z,69.43
2018-09-05T06:51:45.005Z,69.40
2018-09-05T06:54:13.003Z,71.33
2018-09-05T06:56:40.965Z,76.37
2018-09-05T06:59:08.925Z,72.30
2018-09-05T07:01:36.849Z,71.20
2018-09-05T07:04:04.815Z,66.57
2018-09-05T07:06:32.765Z,68.40
2018-09-05T07:09:00.709Z,62.73
2018-09-05T07:11:28.675Z,68.50
2018-09-05T07:13:56.644Z,63.30
2018-09-05T07:16:24.636Z,64.10
2018-09-05T07:18:52.608Z,56.03
2018-09-05T07:21:20.979Z,54.03
2018-09-05T07:23:48.883Z,57.07
2018-09-05T07:26:16.826Z,61.07
2018-09-05T07:28:44.794Z,56.07
2018-09-05T07:31:12.755Z,56.17
2018-09-05T07:33:40.713Z,54.57
2018-09-05T07:36:08.700Z,49.07
2018-09-05T07:38:36.666Z,53.07
2018-09-05T07:41:04.656Z,51.77
2018-09-05T07:43:32.607Z,54.90
2018-09-05T07:46:00.559Z,55.50
2018-09-05T07:48:28.487Z,50.10
2018-09-05T07:50:56.461Z,49.73
2018-09-05T07:53:24.401Z,56.50
2018-09-05T07:55:52.351Z,53.33
2018-09-05T07:58:20.345Z,48.23
2018-09-05T08:00:48.331Z,49.30
2018-09-05T08:03:16.267Z,54.03
2018-09-05T08:05:44.228Z,56.07
2018-09-05T08:08:12.180Z,48.87
2018-09-05T08:10:40.139Z,51.57
2018-09-05T08:13:08.106Z,49.73
2018-09-05T08:15:36.049Z,54.33
2018-09-05T08:18:04.016Z,53.03
2018-09-05T08:20:31.968Z,52.93
2018-09-05T08:23:00.028Z,50.63
2018-09-05T08:25:28.173Z,48.10
2018-09-05T08:27:56.310Z,53.10
2018-09-05T08:30:24.408Z,49.27
2018-09-05T08:32:52.449Z,44.67
2018-09-05T08:35:20.909Z,46.00
2018-09-05T08:37:48.843Z,48.23
2018-09-05T08:40:16.694Z,46.43
2018-09-05T08:42:44.718Z,44.23
2018-09-05T08:45:12.832Z,45.37
2018-09-05T08:47:40.627Z,43.80
2018-09-05T08:50:08.613Z,44.90
2018-09-05T08:52:36.618Z,45.33
2018-09-05T08:55:04.560Z,44.43
2018-09-05T08:57:32.448Z,46.70
2018-09-05T09:00:00.389Z,41.43
2018-09-05T09:02:28.328Z,41.17
2018-09-05T09:04:56.432Z,40.93
2018-09-05T09:07:24.417Z,42.53
2018-09-05T09:09:52.368Z,40.90
2018-09-05T09:12:20.602Z,39.20
2018-09-05T09:14:48.532Z,36.37
2018-09-05T09:17:16.485Z,36.37
2018-09-05T09:19:45.620Z,38.63
2018-09-05T09:22:13.749Z,35.60
2018-09-05T09:24:41.794Z,33.80
2018-09-05T09:27:10.881Z,31.90
2018-09-05T09:29:38.868Z,34.13
2018-09-05T09:32:06.917Z,34.23
2018-09-05T09:34:34.917Z,32.17
2018-09-05T09:37:02.943Z,30.87
2018-09-05T09:39:32.032Z,28.50
2018-09-05T09:42:00.122Z,26.83
2018-09-05T09:44:29.217Z,29.33
2018-09-05T09:46:57.539Z,31.33
2018-09-05T09:49:25.508Z,29.23
2018-09-05T09:51:58.812Z,28.57
2018-09-05T09:54:30.355Z,33.83
2018-09-05T09:56:58.305Z,28.20
2018-09-05T09:59:26.313Z,26.03
2018-09-05T10:01:59.638Z,24.33
2018-09-05T10:04:33.135Z,27.63
2018-09-05T10:07:06.516Z,21.93
2018-09-05T10:09:41.017Z,23.30
2018-09-05T10:12:14.313Z,24.27
2018-09-05T10:14:45.283Z,20.17
2018-09-05T10:17:18.826Z,24.10
2018-09-05T10:19:53.436Z,22.90
2018-09-05T10:22:21.533Z,20.80
2018-09-05T10:24:50.737Z,24.93
2018-09-05T10:27:18.721Z,21.43
2018-09-05T10:29:46.783Z,20.10
2018-09-05T10:32:14.820Z,19.93
2018-09-05T10:34:42.932Z,17.67
2018-09-05T10:37:11.006Z,21.27
2018-09-05T10:39:38.985Z,21.97
2018-09-05T10:42:06.927Z,19.43
2018-09-05T10:44:35.477Z,18.00
2018-09-05T10:47:04.544Z,21.63
2018-09-05T10:49:32.588Z,21.67
2018-09-05T10:52:04.392Z,19.03
2018-09-05T10:54:33.341Z,18.23
2018-09-05T10:57:02.392Z,20.83
2018-09-05T10:59:32.406Z,18.03
2018-09-05T11:02:01.137Z,18.97
2018-09-05T11:04:29.083Z,20.03
2018-09-05T11:06:57.608Z,18.63
2018-09-05T11:09:26.522Z,18.10
2018-09-05T11:11:54.573Z,17.27
2018-09-05T11:14:23.348Z,18.70
2018-09-05T11:16:51.321Z,17.63
2018-09-05T11:19:19.279Z,16.37
2018-09-05T11:21:47.204Z,22.60
2018-09-05T11:24:15.232Z,17.53
2018-09-05T11:26:43.252Z,17.30
2018-09-05T11:29:11.550Z,17.83
2018-09-05T11:31:40.099Z,16.87
2018-09-05T11:34:08.219Z,20.33
2018-09-05T11:36:36.299Z,17.73
2018-09-05T11:39:06.632Z,17.10
2018-09-05T11:41:34.596Z,18.47
2018-09-05T11:44:02.575Z,19.93
2018-09-05T11:46:31.473Z,18.23
2018-09-05T11:48:59.439Z,16.87
2018-09-05T11:51:27.405Z,17.27
2018-09-05T11:53:55.392Z,18.27
2018-09-05T11:56:23.362Z,18.23
2018-09-05T11:58:51.340Z,15.67
2018-09-05T12:01:19.321Z,17.63
2018-09-05T12:03:47.400Z,17.70
2018-09-05T12:06:15.395Z,17.30
2018-09-05T12:08:43.353Z,18.20
2018-09-05T12:11:11.320Z,13.03
2018-09-05T12:13:39.284Z,12.93
2018-09-05T12:16:07.247Z,13.40
2018-09-05T12:18:35.261Z,13.60
2018-09-05T12:21:03.221Z,14.07
2018-09-05T12:23:31.166Z,14.33
2018-09-05T12:25:59.203Z,13.13
2018-09-05T12:28:27.156Z,12.60
2018-09-05T12:30:55.143Z,11.80
2018-09-05T12:33:23.137Z,15.97
2018-09-05T12:35:54.189Z,14.07
2018-09-05T12:38:22.350Z,13.83
2018-09-05T12:40:50.277Z,15.00
2018-09-05T12:43:18.243Z,13.13
2018-09-05T12:45:46.201Z,13.00
2018-09-05T12:48:14.222Z,13.53
2018-09-05T12:50:42.181Z,14.60
2018-09-05T12:53:10.342Z,14.30
2018-09-05T12:55:38.423Z,13.40
2018-09-05T12:58:06.460Z,12.67
2018-09-05T13:00:34.444Z,11.57
2018-09-05T13:03:02.420Z,11.87
2018-09-05T13:05:30.390Z,14.03
2018-09-05T13:07:58.362Z,12.10
2018-09-05T13:10:26.433Z,11.47
2018-09-05T13:12:54.404Z,11.93
2018-09-05T13:15:23.682Z,13.93
2018-09-05T13:17:51.707Z,11.23
2018-09-05T13:20:19.723Z,12.57
2018-09-05T13:22:47.818Z,11.00
2018-09-05T13:25:15.752Z,11.90
2018-09-05T13:27:43.893Z,13.27
2018-09-05T13:30:11.896Z,11.07
2018-09-05T13:32:39.953Z,11.30
2018-09-05T13:35:08.328Z,13.47
2018-09-05T13:37:36.300Z,12.50
2018-09-05T13:40:04.295Z,14.30
2018-09-05T13:42:32.284Z,10.23
2018-09-05T13:45:00.287Z,10.77
2018-09-05T13:47:28.289Z,9.43
2018-09-05T13:49:56.637Z,11.33
2018-09-05T13:52:24.979Z,10.63
2018-09-05T13:54:53.208Z,10.03
2018-09-05T13:57:21.457Z,12.73
2018-09-05T13:59:56.208Z,9.87
2018-09-05T14:02:24.356Z,11.20
2018-09-05T14:04:53.894Z,9.23
2018-09-05T14:07:23.514Z,10.63
2018-09-05T14:10:02.809Z,9.67
2018-09-05T14:12:30.829Z,9.60
2018-09-05T14:14:58.844Z,9.83
2018-09-05T14:17:26.817Z,10.83
2018-09-05T14:19:54.870Z,10.40
2018-09-05T14:22:23.888Z,10.83
2018-09-05T14:24:52.284Z,9.30
2018-09-05T14:27:23.579Z,8.90
2018-09-05T14:29:51.472Z,8.87
2018-09-05T14:32:19.512Z,10.20
2018-09-05T14:34:48.276Z,8.97
2018-09-05T14:37:16.372Z,8.80
2018-09-05T14:39:44.323Z,8.70
2018-09-05T14:42:12.420Z,8.20
2018-09-05T14:44:45.481Z,9.27
2018-09-05T14:47:13.936Z,8.00
2018-09-05T14:49:41.975Z,8.07
2018-09-05T14:52:11.000Z,11.33
2018-09-05T14:54:39.164Z,9.43
2018-09-05T14:57:07.192Z,9.17
2018-09-05T14:59:36.101Z,7.73
2018-09-05T15:02:04.109Z,7.70
2018-09-05T15:04:32.129Z,10.10
2018-09-05T15:07:00.106Z,8.57
2018-09-05T15:09:29.188Z,9.20
2018-09-05T15:11:57.282Z,8.67
2018-09-05T15:14:25.337Z,10.57
2018-09-05T15:16:53.366Z,7.93
2018-09-05T15:19:21.408Z,7.67
2018-09-05T15:21:49.405Z,9.03
2018-09-05T15:24:17.458Z,10.40
2018-09-05T15:26:45.467Z,11.83
2018-09-05T15:29:14.549Z,10.57
2018-09-05T15:31:42.541Z,8.67
2018-09-05T15:34:12.577Z,8.60
2018-09-05T15:36:40.673Z,8.87
2018-09-05T15:39:09.110Z,8.87
2018-09-05T15:41:37.183Z,7.83
2018-09-05T15:44:05.288Z,7.77
2018-09-05T15:46:33.428Z,8.27
2018-09-05T15:49:01.420Z,7.73
2018-09-05T15:51:29.538Z,7.93
2018-09-05T15:53:57.668Z,8.73
2018-09-05T15:56:25.683Z,8.27
2018-09-05T15:58:53.729Z,8.70
2018-09-05T16:01:21.913Z,9.17
2018-09-05T16:03:49.986Z,9.13
2018-09-05T16:06:18.037Z,9.80
2018-09-05T16:08:46.026Z,7.83
2018-09-05T16:11:14.142Z,7.33
2018-09-05T16:13:42.227Z,7.50
2018-09-05T16:16:10.276Z,7.60
2018-09-05T16:18:41.486Z,7.13
2018-09-05T16:21:09.576Z,6.93
2018-09-05T16:23:37.634Z,11.57
2018-09-05T16:26:05.776Z,7.20
2018-09-05T16:28:33.849Z,8.10
2018-09-05T16:31:01.942Z,7.57
2018-09-05T16:33:29.953Z,8.60
2018-09-05T16:36:04.482Z,8.20
2018-09-05T16:38:32.528Z,6.57
2018-09-05T16:41:00.600Z,7.03
2018-09-05T16:43:28.680Z,7.47
2018-09-05T16:45:56.737Z,7.00
2018-09-05T16:48:24.940Z,6.33
2018-09-05T16:50:58.625Z,8.30
2018-09-05T16:53:32.311Z,7.57
2018-09-05T16:58:53.496Z,6.10
2018-09-05T17:01:21.503Z,6.23
2018-09-05T17:03:49.590Z,8.43
2018-09-05T17:06:17.605Z,11.20
2018-09-05T17:08:49.863Z,11.30
2018-09-05T17:11:17.913Z,11.17
2018-09-05T17:13:45.972Z,8.73
2018-09-05T17:16:16.076Z,6.63
2018-09-05T17:18:44.095Z,6.07
2018-09-05T17:21:15.034Z,9.47
2018-09-05T17:23:43.701Z,7.27
2018-09-05T17:26:12.148Z,6.47
2018-09-05T17:28:40.162Z,6.23
2018-09-05T17:31:09.875Z,8.23
2018-09-05T17:33:37.910Z,6.20
2018-09-05T17:36:05.907Z,6.90
2018-09-05T17:38:34.929Z,6.13
2018-09-05T17:41:08.423Z,7.40
2018-09-05T17:43:36.430Z,6.10
2018-09-05T17:46:04.472Z,6.87
2018-09-05T17:48:32.444Z,7.93
2018-09-05T17:51:00.566Z,6.20
2018-09-05T17:53:28.574Z,6.27
2018-09-05T17:55:56.548Z,7.83
2018-09-05T17:58:25.709Z,6.93
2018-09-05T18:01:01.777Z,8.00
2018-09-05T18:03:29.768Z,7.57
2018-09-05T18:05:57.757Z,5.87
2018-09-05T18:08:25.821Z,7.10
2018-09-05T18:10:54.882Z,6.10
2018-09-05T18:13:22.938Z,8.10
2018-09-05T18:15:50.966Z,6.60
2018-09-05T18:18:19.056Z,6.67
2018-09-05T18:20:47.036Z,6.63
2018-09-05T18:23:15.010Z,7.50
2018-09-05T18:25:43.165Z,8.57
2018-09-05T18:28:11.200Z,6.60
2018-09-05T18:30:39.426Z,8.10
2018-09-05T18:33:07.509Z,7.30
2018-09-05T18:35:37.602Z,6.10
2018-09-05T18:38:07.611Z,9.40
2018-09-05T18:40:35.605Z,7.00
2018-09-05T18:43:03.709Z,7.67
2018-09-05T18:45:31.795Z,6.80
2018-09-05T18:48:14.052Z,9.27
2018-09-05T18:50:42.161Z,6.83
2018-09-05T18:53:10.706Z,8.67
2018-09-05T18:55:39.462Z,7.07
2018-09-05T18:58:07.460Z,7.73
2018-09-05T19:00:40.996Z,8.30
2018-09-05T19:03:09.871Z,7.73
2018-09-05T19:05:37.902Z,8.73
2018-09-05T19:08:06.088Z,8.23
2018-09-05T19:10:39.776Z,8.40
2018-09-05T19:15:54.117Z,8.27
2018-09-05T19:18:22.200Z,7.40
2018-09-05T19:20:50.238Z,10.50
2018-09-05T19:23:18.482Z,8.37
2018-09-05T19:25:46.553Z,8.60
2018-09-05T19:28:15.617Z,9.73
2018-09-05T19:30:43.713Z,10.83
2018-09-05T19:33:11.992Z,8.03
2018-09-05T19:35:40.019Z,10.87
2018-09-05T19:38:08.018Z,9.57
2018-09-05T19:40:36.062Z,9.00
2018-09-05T19:43:05.282Z,11.47
2018-09-05T19:45:35.386Z,7.17
2018-09-05T19:48:10.178Z,8.97
2018-09-05T19:50:38.341Z,8.23
2018-09-05T19:53:06.339Z,8.28
2018-09-05T19:55:34.322Z,7.47
2018-09-05T19:58:09.145Z,7.20
2018-09-05T20:00:42.469Z,9.00
2018-09-05T20:03:11.541Z,11.87
2018-09-05T20:05:40.193Z,10.77
2018-09-05T20:08:08.207Z,8.63
2018-09-05T20:10:36.201Z,8.80
2018-09-05T20:13:05.918Z,9.50
2018-09-05T20:15:34.000Z,11.67
2018-09-05T20:18:01.975Z,10.70
2018-09-05T20:20:29.985Z,9.63
2018-09-05T20:22:57.988Z,9.20
2018-09-05T20:25:26.002Z,9.27
2018-09-05T20:27:54.032Z,9.37
2018-09-05T20:30:22.122Z,16.20
2018-09-05T20:32:50.290Z,12.37
2018-09-05T20:35:18.276Z,10.20
2018-09-05T20:37:46.261Z,7.83
2018-09-05T20:40:14.282Z,13.10
2018-09-05T20:42:42.316Z,14.47
2018-09-05T20:45:10.294Z,9.27
2018-09-05T20:47:38.497Z,10.95
2018-09-05T20:50:06.433Z,8.20
2018-09-05T20:52:34.442Z,6.83
2018-09-05T20:55:02.450Z,9.77
2018-09-05T20:57:30.565Z,9.60
2018-09-05T20:59:58.569Z,7.30
2018-09-05T21:02:26.561Z,10.10
2018-09-05T21:04:54.646Z,8.57
2018-09-05T21:07:22.752Z,8.70
2018-09-05T21:09:50.854Z,9.67
2018-09-05T21:12:18.901Z,8.70
2018-09-05T21:14:46.921Z,12.03
2018-09-05T21:17:14.933Z,10.57
2018-09-05T21:19:53.248Z,7.87
2018-09-05T21:22:21.358Z,9.80
2018-09-05T21:24:49.337Z,10.67
2018-09-05T21:27:17.397Z,8.60
2018-09-05T21:29:45.548Z,10.77
2018-09-05T21:32:13.572Z,8.47
2018-09-05T21:34:44.421Z,9.30
2018-09-05T21:40:00.135Z,7.10
2018-09-05T21:42:28.179Z,8.00
2018-09-05T21:44:56.161Z,10.33
2018-09-05T21:47:26.168Z,11.40
2018-09-05T21:49:54.197Z,10.07
2018-09-05T21:52:22.277Z,8.80
2018-09-05T21:54:50.309Z,9.97
2018-09-05T21:57:19.245Z,11.63
2018-09-05T21:59:48.284Z,7.57
2018-09-05T22:02:16.322Z,6.93
2018-09-05T22:04:44.388Z,10.40
2018-09-05T22:07:12.386Z,8.63
2018-09-05T22:09:40.385Z,7.60
2018-09-05T22:12:08.391Z,9.23
2018-09-05T22:14:36.442Z,10.03
2018-09-05T22:17:06.733Z,9.07
2018-09-05T22:19:34.797Z,10.20
2018-09-05T22:22:02.827Z,9.30
2018-09-05T22:24:30.957Z,10.87
2018-09-05T22:26:58.946Z,12.10
2018-09-05T22:29:27.154Z,9.00
2018-09-05T22:31:55.429Z,11.73
2018-09-05T22:34:23.450Z,10.03
2018-09-05T22:36:51.472Z,9.53
2018-09-05T22:39:19.470Z,14.43
2018-09-05T22:41:47.486Z,12.63
2018-09-05T22:44:20.914Z,9.17
2018-09-05T22:46:54.537Z,14.13
2018-09-05T22:49:58.657Z,13.07
2018-09-05T22:54:39.582Z,13.10
2018-09-05T22:57:19.855Z,8.73
2018-09-05T22:59:57.923Z,11.37
2018-09-05T23:02:40.830Z,9.67
2018-09-05T23:05:14.335Z,14.17
2018-09-05T23:08:46.516Z,9.63
2018-09-05T23:11:20.847Z,8.97
2018-09-05T23:13:54.419Z,10.47
2018-09-05T23:16:28.005Z,8.13
2018-09-05T23:19:16.552Z,10.13
2018-09-05T23:21:44.584Z,9.73
2018-09-05T23:24:12.642Z,10.23
2018-09-05T23:26:40.752Z,9.10
2018-09-05T23:29:08.819Z,11.33
2018-09-05T23:31:36.837Z,8.27
2018-09-05T23:34:09.810Z,11.43
2018-09-05T23:36:37.817Z,10.20
2018-09-05T23:39:06.700Z,10.73
2018-09-05T23:41:34.750Z,9.67
2018-09-05T23:44:02.765Z,10.37
2018-09-05T23:46:30.812Z,9.30
2018-09-05T23:48:58.821Z,8.30
2018-09-05T23:51:26.846Z,10.10
2018-09-05T23:53:54.872Z,9.40
2018-09-05T23:56:22.969Z,10.80
2018-09-05T23:58:51.025Z,13.30
